Time;durP1;ratioP1;P1;durP2;ratioP2;P2;SDS_P1;SDS_P2;PMS_P1;PMS_P2;Temp;Humidity;BMP_temperature;BMP_pressure;BME280_temperature;BME280_humidity;BME280_pressure;Samples;Min_cycle;Max_cycle;Signal;HPM_P1;HPM_P2
2023/02/08 00:02:52;;;;;;;;;;;18.90;49.50;;;;;;7786952;22;19982;-72
2023/02/08 00:05:53;;;;;;;;;;;18.90;49.50;;;;;;7786126;22;19918;-72
2023/02/08 00:08:53;;;;;;;;;;;19.00;49.50;;;;;;7786533;22;20343;-73
2023/02/08 00:11:54;;;;;;;;;;;19.00;49.60;;;;;;7786663;22;19903;-72
2023/02/08 00:14:54;;;;;;;;;;;18.90;49.50;;;;;;7787207;22;20272;-73
2023/02/08 00:17:55;;;;;;;;;;;18.90;49.50;;;;;;7786449;22;19960;-72
2023/02/08 00:20:56;;;;;;;;;;;18.90;49.50;;;;;;7781271;22;19907;-72
2023/02/08 00:23:56;;;;;;;;;;;18.90;49.40;;;;;;7781588;22;20376;-73
2023/02/08 00:26:57;;;;;;;;;;;18.90;49.50;;;;;;7786108;22;19910;-71
2023/02/08 00:29:57;;;;;;;;;;;18.90;49.50;;;;;;7786210;22;19911;-71
2023/02/08 00:33:00;;;;;;;;;;;18.90;49.40;;;;;;7785843;22;19923;-73
2023/02/08 00:36:01;;;;;;;;;;;18.90;49.30;;;;;;7786082;22;20508;-73
2023/02/08 00:39:01;;;;;;;;;;;18.90;49.40;;;;;;7786599;22;19907;-73
2023/02/08 00:42:02;;;;;;;;;;;18.90;49.50;;;;;;7786418;22;20342;-72
2023/02/08 00:45:03;;;;;;;;;;;18.90;49.40;;;;;;7785710;22;20355;-72
2023/02/08 00:48:03;;;;;;;;;;;18.90;49.50;;;;;;7786773;22;19914;-73
2023/02/08 00:51:09;;;;;;;;;;;18.90;49.40;;;;;;7776054;22;19903;-72
2023/02/08 00:54:12;;;;;;;;;;;18.90;50.10;;;;;;7781074;22;19908;-72
2023/02/08 00:57:13;;;;;;;;;;;18.90;49.50;;;;;;7786547;22;19903;-72
2023/02/08 01:00:14;;;;;;;;;;;18.90;49.50;;;;;;7785940;22;19910;-72
2023/02/08 01:03:14;;;;;;;;;;;18.90;49.50;;;;;;7786038;22;20018;-72
2023/02/08 01:06:16;;;;;;;;;;;18.90;49.50;;;;;;7785536;22;19942;-71
2023/02/08 01:09:16;;;;;;;;;;;18.90;49.50;;;;;;7785828;22;19903;-73
2023/02/08 01:12:17;;;;;;;;;;;18.90;49.50;;;;;;7785738;22;20199;-73
2023/02/08 01:15:18;;;;;;;;;;;18.90;49.50;;;;;;7785312;22;19911;-72
2023/02/08 01:18:18;;;;;;;;;;;18.90;49.50;;;;;;7785952;22;19907;-72
2023/02/08 01:21:21;;;;;;;;;;;18.90;49.50;;;;;;7785474;22;19908;-72
2023/02/08 01:24:22;;;;;;;;;;;18.90;49.50;;;;;;7786077;22;19904;-72
2023/02/08 01:27:22;;;;;;;;;;;18.90;49.60;;;;;;7786026;22;19907;-72
2023/02/08 01:30:23;;;;;;;;;;;18.90;49.50;;;;;;7785875;22;20337;-72
2023/02/08 01:33:23;;;;;;;;;;;18.90;49.50;;;;;;7785539;22;19903;-71
2023/02/08 01:36:25;;;;;;;;;;;18.90;49.50;;;;;;7785272;22;19912;-72
2023/02/08 01:39:25;;;;;;;;;;;18.90;49.50;;;;;;7758567;22;19978;-72
2023/02/08 01:42:26;;;;;;;;;;;18.90;49.60;;;;;;7594917;23;19912;-72
2023/02/08 01:45:28;;;;;;;;;;;18.90;49.50;;;;;;7594888;23;19928;-72
2023/02/08 01:48:31;;;;;;;;;;;18.90;49.60;;;;;;7595308;23;19991;-72
2023/02/08 01:51:33;;;;;;;;;;;18.90;49.50;;;;;;7594848;23;19905;-73
2023/02/08 01:54:36;;;;;;;;;;;18.90;49.50;;;;;;7595000;23;20056;-73
2023/02/08 01:57:37;;;;;;;;;;;18.90;49.50;;;;;;7594609;23;20264;-73
2023/02/08 02:00:37;;;;;;;;;;;18.90;49.50;;;;;;7594875;23;19932;-73
2023/02/08 02:03:38;;;;;;;;;;;18.90;49.50;;;;;;7596746;23;19905;-72
2023/02/08 02:06:42;;;;;;;;;;;18.90;49.50;;;;;;7597166;23;20280;-73
2023/02/08 02:09:45;;;;;;;;;;;18.90;49.50;;;;;;7597324;23;20219;-72
2023/02/08 02:12:46;;;;;;;;;;;18.90;49.50;;;;;;7668314;22;20255;-73
2023/02/08 02:15:47;;;;;;;;;;;18.90;49.50;;;;;;7787628;22;19919;-72
2023/02/08 02:18:47;;;;;;;;;;;18.90;49.50;;;;;;7787843;22;20234;-73
2023/02/08 02:21:53;;;;;;;;;;;18.90;49.50;;;;;;7787622;22;19909;-73
2023/02/08 02:25:14;;;;;;;;;;;18.90;49.50;;;;;;7787145;22;19903;-73
2023/02/08 02:28:36;;;;;;;;;;;18.90;49.50;;;;;;7788747;22;19910;-72
2023/02/08 02:31:55;;;;;;;;;;;18.90;49.50;;;;;;7787599;22;19910;-70
2023/02/08 02:34:59;;;;;;;;;;;18.90;49.50;;;;;;7760541;22;20001;-73
2023/02/08 02:37:59;;;;;;;;;;;18.90;49.50;;;;;;7788024;22;20282;-72
2023/02/08 02:41:03;;;;;;;;;;;18.90;49.50;;;;;;7788042;22;19903;-72
2023/02/08 02:44:08;;;;;;;;;;;18.90;49.50;;;;;;7787236;22;19923;-73
2023/02/08 02:47:15;;;;;;;;;;;18.90;49.50;;;;;;7787456;22;20034;-73
2023/02/08 02:50:26;;;;;;;;;;;18.90;49.50;;;;;;7777754;22;19908;-72
2023/02/08 02:53:27;;;;;;;;;;;18.90;49.50;;;;;;7633333;23;20064;-72
2023/02/08 02:56:35;;;;;;;;;;;18.90;49.50;;;;;;7633298;23;19913;-73
2023/02/08 02:59:36;;;;;;;;;;;18.90;49.50;;;;;;7633522;23;19908;-72
2023/02/08 03:02:37;;;;;;;;;;;18.90;49.50;;;;;;7633886;23;20338;-72
2023/02/08 03:05:37;;;;;;;;;;;18.90;49.50;;;;;;7608827;23;19905;-73
2023/02/08 03:08:46;;;;;;;;;;;18.90;49.50;;;;;;7633738;23;19905;-73
2023/02/08 03:11:52;;;;;;;;;;;18.90;49.50;;;;;;7633068;23;19905;-71
2023/02/08 03:15:12;;;;;;;;;;;18.90;49.50;;;;;;7633108;23;19917;-72
2023/02/08 03:18:16;;;;;;;;;;;18.90;49.50;;;;;;7633381;23;19925;-72
2023/02/08 03:21:26;;;;;;;;;;;18.90;49.50;;;;;;7633402;23;19912;-72
2023/02/08 03:24:30;;;;;;;;;;;18.90;49.50;;;;;;7725191;22;19915;-72
2023/02/08 03:27:33;;;;;;;;;;;18.90;49.50;;;;;;7787141;22;20285;-73
2023/02/08 03:30:56;;;;;;;;;;;18.90;49.50;;;;;;7787537;22;19903;-71
2023/02/08 03:34:00;;;;;;;;;;;18.90;49.50;;;;;;7766624;22;19950;-72
2023/02/08 03:37:05;;;;;;;;;;;18.90;49.50;;;;;;7777516;22;20361;-73
2023/02/08 03:40:12;;;;;;;;;;;18.90;49.50;;;;;;7787642;22;19915;-72
2023/02/08 03:43:28;;;;;;;;;;;18.90;49.40;;;;;;7786608;22;20441;-72
2023/02/08 03:46:49;;;;;;;;;;;18.90;49.30;;;;;;7787238;22;19911;-72
2023/02/08 03:49:51;;;;;;;;;;;18.90;49.30;;;;;;7787111;22;19957;-73
2023/02/08 03:52:52;;;;;;;;;;;18.90;49.20;;;;;;7786733;22;20259;-72
2023/02/08 03:55:58;;;;;;;;;;;18.90;49.30;;;;;;7786672;22;19911;-73
2023/02/08 03:59:00;;;;;;;;;;;18.90;49.40;;;;;;7786750;22;19949;-71
2023/02/08 04:02:02;;;;;;;;;;;18.90;49.40;;;;;;7786251;22;20246;-72
2023/02/08 04:05:03;;;;;;;;;;;18.90;49.30;;;;;;7786888;22;20311;-72
2023/02/08 04:08:03;;;;;;;;;;;18.90;49.40;;;;;;7787303;22;19914;-72
2023/02/08 04:11:04;;;;;;;;;;;18.90;49.40;;;;;;7786807;22;19907;-73
2023/02/08 04:14:04;;;;;;;;;;;18.90;49.30;;;;;;7786033;22;19914;-72
2023/02/08 04:17:05;;;;;;;;;;;18.90;49.40;;;;;;7786464;22;19915;-72
2023/02/08 04:20:06;;;;;;;;;;;18.90;49.30;;;;;;7786555;22;20477;-72
2023/02/08 04:23:06;;;;;;;;;;;18.90;49.30;;;;;;7786545;22;19930;-73
2023/02/08 04:26:07;;;;;;;;;;;18.90;49.40;;;;;;7778994;22;19903;-72
2023/02/08 04:29:08;;;;;;;;;;;18.90;49.40;;;;;;7779298;22;19903;-72
2023/02/08 04:32:10;;;;;;;;;;;18.90;49.40;;;;;;7786540;22;19904;-72
2023/02/08 04:35:11;;;;;;;;;;;18.90;49.40;;;;;;7786081;22;19918;-72
2023/02/08 04:38:11;;;;;;;;;;;18.90;49.40;;;;;;7785992;22;19907;-72
2023/02/08 04:41:12;;;;;;;;;;;18.90;49.30;;;;;;7786400;22;19977;-69
2023/02/08 04:44:13;;;;;;;;;;;18.90;49.30;;;;;;7785847;22;19938;-73
2023/02/08 04:47:14;;;;;;;;;;;18.90;49.30;;;;;;7785978;22;19903;-73
2023/02/08 04:50:14;;;;;;;;;;;18.90;49.40;;;;;;7785943;22;20354;-73
2023/02/08 04:53:15;;;;;;;;;;;18.90;49.40;;;;;;7785580;22;19915;-72
2023/02/08 04:56:15;;;;;;;;;;;18.90;50.00;;;;;;7778411;22;19927;-73
2023/02/08 05:02:54;;;;;;;;;;;18.90;49.40;;;;;;7786090;22;19903;-73
2023/02/08 05:05:56;;;;;;;;;;;18.90;49.20;;;;;;7785886;22;20308;-73
2023/02/08 05:08:56;;;;;;;;;;;18.90;49.30;;;;;;7778980;22;19931;-72
2023/02/08 05:11:57;;;;;;;;;;;18.90;49.40;;;;;;7785498;22;19985;-73
2023/02/08 05:14:57;;;;;;;;;;;18.90;49.40;;;;;;7776419;22;19914;-72
2023/02/08 05:17:58;;;;;;;;;;;18.90;49.30;;;;;;7785784;22;20415;-72
2023/02/08 05:20:59;;;;;;;;;;;18.90;49.40;;;;;;7776252;22;19910;-72
2023/02/08 05:24:00;;;;;;;;;;;18.90;49.40;;;;;;7785951;22;19903;-73
2023/02/08 05:27:00;;;;;;;;;;;18.90;49.40;;;;;;7786170;22;19907;-72
2023/02/08 05:30:01;;;;;;;;;;;18.90;49.50;;;;;;7785755;22;19907;-72
2023/02/08 05:33:01;;;;;;;;;;;18.90;49.50;;;;;;7785733;22;19910;-72
2023/02/08 05:36:02;;;;;;;;;;;18.90;49.50;;;;;;7785401;22;19912;-72
2023/02/08 05:39:03;;;;;;;;;;;18.90;49.50;;;;;;7785315;22;19968;-71
2023/02/08 05:42:03;;;;;;;;;;;18.90;49.50;;;;;;7785441;22;20276;-72
2023/02/08 05:45:04;;;;;;;;;;;18.90;49.40;;;;;;7784971;22;20326;-73
2023/02/08 05:48:05;;;;;;;;;;;18.90;49.50;;;;;;7785447;22;19931;-72
2023/02/08 05:51:05;;;;;;;;;;;18.90;49.50;;;;;;7785763;22;19982;-72
2023/02/08 05:54:06;;;;;;;;;;;18.90;49.40;;;;;;7785382;22;19930;-72
2023/02/08 05:57:07;;;;;;;;;;;18.90;49.40;;;;;;7785227;22;19992;-73
2023/02/08 06:00:07;;;;;;;;;;;18.90;49.30;;;;;;7785517;22;19903;-71
2023/02/08 06:03:08;;;;;;;;;;;18.90;49.40;;;;;;7784703;22;19903;-73
2023/02/08 06:06:12;;;;;;;;;;;18.90;49.40;;;;;;7785718;22;19904;-73
2023/02/08 06:09:12;;;;;;;;;;;18.90;49.40;;;;;;7785023;22;19903;-72
2023/02/08 06:12:13;;;;;;;;;;;18.90;49.40;;;;;;7785663;22;19910;-72
2023/02/08 06:15:13;;;;;;;;;;;18.90;49.40;;;;;;7780014;22;19911;-71
2023/02/08 06:18:14;;;;;;;;;;;18.90;50.00;;;;;;7785457;22;19911;-72
2023/02/08 06:21:14;;;;;;;;;;;18.90;49.40;;;;;;7785318;22;19903;-72
2023/02/08 06:24:15;;;;;;;;;;;18.90;50.00;;;;;;7785500;22;19949;-72
2023/02/08 06:27:16;;;;;;;;;;;18.90;49.30;;;;;;7785724;22;19935;-71
2023/02/08 06:30:16;;;;;;;;;;;18.90;49.50;;;;;;7785394;22;19903;-72
2023/02/08 06:33:17;;;;;;;;;;;18.90;49.30;;;;;;7780335;22;19903;-72
2023/02/08 06:36:18;;;;;;;;;;;18.90;49.30;;;;;;7785280;22;19911;-72
2023/02/08 06:39:18;;;;;;;;;;;18.90;49.40;;;;;;7785349;22;20247;-72
2023/02/08 06:42:19;;;;;;;;;;;18.90;49.50;;;;;;7785863;22;20319;-72
2023/02/08 06:45:19;;;;;;;;;;;18.90;49.50;;;;;;7785344;22;19915;-73
2023/02/08 06:48:20;;;;;;;;;;;18.90;49.50;;;;;;7785624;22;20196;-72
2023/02/08 06:51:20;;;;;;;;;;;18.90;49.50;;;;;;7777308;22;19908;-72
2023/02/08 06:54:21;;;;;;;;;;;18.90;49.60;;;;;;7787378;22;20421;-73
2023/02/08 06:57:21;;;;;;;;;;;18.90;49.60;;;;;;7787031;22;19949;-72
2023/02/08 07:00:22;;;;;;;;;;;18.90;49.50;;;;;;7787267;22;19930;-73
2023/02/08 07:03:22;;;;;;;;;;;18.90;49.60;;;;;;7790202;22;20234;-73
2023/02/08 07:06:23;;;;;;;;;;;18.90;49.40;;;;;;7789027;22;19907;-72
2023/02/08 07:09:23;;;;;;;;;;;18.80;48.00;;;;;;7788344;22;20246;-72
2023/02/08 07:12:24;;;;;;;;;;;18.80;47.40;;;;;;7789813;22;20390;-73
2023/02/08 07:15:24;;;;;;;;;;;18.80;46.40;;;;;;7789365;22;19918;-73
2023/02/08 07:18:25;;;;;;;;;;;18.70;45.80;;;;;;7788736;22;20228;-73
2023/02/08 07:21:26;;;;;;;;;;;18.70;45.30;;;;;;7789169;22;19988;-72
2023/02/08 07:24:26;;;;;;;;;;;18.70;44.10;;;;;;7789207;22;19911;-72
2023/02/08 07:27:27;;;;;;;;;;;18.70;43.00;;;;;;7789254;22;19903;-72
2023/02/08 07:30:27;;;;;;;;;;;18.70;43.00;;;;;;7789083;22;20212;-73
2023/02/08 07:33:28;;;;;;;;;;;18.60;43.40;;;;;;7789561;22;20306;-72
2023/02/08 07:36:29;;;;;;;;;;;18.60;41.90;;;;;;7789167;22;19922;-72
2023/02/08 07:39:30;;;;;;;;;;;18.60;42.00;;;;;;7789411;22;19978;-72
2023/02/08 07:42:31;;;;;;;;;;;18.60;40.00;;;;;;7789203;22;19903;-72
2023/02/08 07:45:32;;;;;;;;;;;18.60;39.70;;;;;;7788552;22;19916;-72
2023/02/08 07:48:33;;;;;;;;;;;18.70;40.80;;;;;;7789324;22;19903;-72
2023/02/08 07:51:34;;;;;;;;;;;18.70;41.10;;;;;;7789063;22;19911;-73
2023/02/08 07:54:34;;;;;;;;;;;18.60;41.30;;;;;;7781965;22;20319;-72
2023/02/08 07:57:35;;;;;;;;;;;18.70;41.70;;;;;;7789884;22;19919;-72
2023/02/08 08:00:35;;;;;;;;;;;18.70;42.00;;;;;;7789523;22;19994;-72
2023/02/08 08:03:36;;;;;;;;;;;18.70;42.40;;;;;;7788839;22;19907;-72
2023/02/08 08:06:36;;;;;;;;;;;18.70;42.70;;;;;;7789530;22;19904;-71
2023/02/08 08:09:37;;;;;;;;;;;18.70;43.60;;;;;;7788992;22;19907;-70
2023/02/08 08:12:37;;;;;;;;;;;18.70;43.30;;;;;;7784810;22;20238;-73
2023/02/08 08:15:38;;;;;;;;;;;18.70;43.40;;;;;;7789121;22;19958;-72
2023/02/08 08:18:39;;;;;;;;;;;18.70;43.70;;;;;;7784981;22;19911;-71
2023/02/08 08:21:39;;;;;;;;;;;18.70;43.90;;;;;;7635843;23;20325;-72
2023/02/08 08:24:40;;;;;;;;;;;18.70;44.20;;;;;;7635776;23;19908;-73
2023/02/08 08:27:40;;;;;;;;;;;18.70;44.30;;;;;;7635815;23;19909;-73
2023/02/08 08:30:42;;;;;;;;;;;18.70;44.50;;;;;;7635755;23;19904;-72
2023/02/08 08:33:43;;;;;;;;;;;18.70;44.70;;;;;;7635950;23;19959;-72
2023/02/08 08:36:43;;;;;;;;;;;18.70;44.80;;;;;;7635370;23;19916;-72
2023/02/08 08:39:44;;;;;;;;;;;18.70;44.90;;;;;;7634971;23;19993;-72
2023/02/08 08:42:44;;;;;;;;;;;18.70;45.00;;;;;;7635914;23;19905;-72
2023/02/08 08:45:45;;;;;;;;;;;18.80;45.10;;;;;;7635036;23;19917;-72
2023/02/08 08:48:45;;;;;;;;;;;18.80;45.30;;;;;;7636055;23;20195;-72
2023/02/08 08:51:46;;;;;;;;;;;18.70;45.30;;;;;;7670375;23;19915;-72
2023/02/08 08:54:46;;;;;;;;;;;18.70;45.30;;;;;;7750939;22;19911;-72
2023/02/08 08:57:47;;;;;;;;;;;18.80;45.50;;;;;;7750951;22;19978;-72
2023/02/08 09:00:47;;;;;;;;;;;18.80;45.50;;;;;;7751404;22;19981;-73
2023/02/08 09:03:48;;;;;;;;;;;18.80;45.60;;;;;;7751148;22;19915;-72
2023/02/08 09:06:49;;;;;;;;;;;18.80;45.60;;;;;;7750766;22;20365;-72
2023/02/08 09:09:49;;;;;;;;;;;18.80;45.60;;;;;;7749333;22;19907;-71
2023/02/08 09:12:51;;;;;;;;;;;18.80;45.70;;;;;;7750576;22;20343;-72
2023/02/08 09:15:52;;;;;;;;;;;18.80;45.70;;;;;;7750320;22;19911;-72
2023/02/08 09:18:52;;;;;;;;;;;18.80;45.80;;;;;;7750550;22;20235;-72
2023/02/08 09:21:53;;;;;;;;;;;18.80;45.90;;;;;;7751329;22;19903;-72
2023/02/08 09:24:54;;;;;;;;;;;18.80;45.90;;;;;;7750393;22;19985;-71
2023/02/08 09:27:54;;;;;;;;;;;18.80;46.00;;;;;;7751044;22;19907;-72
2023/02/08 09:30:55;;;;;;;;;;;18.80;46.00;;;;;;7750438;22;19927;-71
2023/02/08 09:33:56;;;;;;;;;;;18.80;46.00;;;;;;7750976;22;19911;-72
2023/02/08 09:36:57;;;;;;;;;;;18.80;46.00;;;;;;7750388;22;19922;-72
2023/02/08 09:39:58;;;;;;;;;;;18.80;46.10;;;;;;7751023;22;19904;-71
2023/02/08 09:43:11;;;;;;;;;;;18.80;46.20;;;;;;7751028;22;19910;-71
2023/02/08 09:46:22;;;;;;;;;;;18.80;46.10;;;;;;7788737;22;19919;-73
2023/02/08 09:49:25;;;;;;;;;;;18.80;46.20;;;;;;7788222;22;20255;-73
2023/02/08 09:52:33;;;;;;;;;;;18.80;46.30;;;;;;7788542;22;19907;-72
2023/02/08 09:55:33;;;;;;;;;;;18.80;46.30;;;;;;7788297;22;19950;-73
2023/02/08 09:58:43;;;;;;;;;;;18.80;46.40;;;;;;7788201;22;20141;-72
2023/02/08 10:01:44;;;;;;;;;;;18.80;46.40;;;;;;7788556;22;19907;-72
2023/02/08 10:04:52;;;;;;;;;;;18.80;46.50;;;;;;7671771;23;20407;-72
2023/02/08 10:07:53;;;;;;;;;;;18.80;46.50;;;;;;7672453;23;20414;-71
2023/02/08 10:10:56;;;;;;;;;;;18.80;46.50;;;;;;7671244;23;19943;-72
2023/02/08 10:14:15;;;;;;;;;;;18.80;46.60;;;;;;7672351;23;20432;-73
2023/02/08 10:17:25;;;;;;;;;;;18.80;46.60;;;;;;7667519;23;19916;-72
2023/02/08 10:20:39;;;;;;;;;;;18.80;46.60;;;;;;7671739;23;19908;-72
2023/02/08 10:23:48;;;;;;;;;;;18.80;46.60;;;;;;7672399;23;19933;-73
2023/02/08 10:26:58;;;;;;;;;;;18.80;47.30;;;;;;7674437;23;19927;-70
2023/02/08 10:30:16;;;;;;;;;;;18.80;46.50;;;;;;7673776;23;20288;-72
2023/02/08 10:33:21;;;;;;;;;;;18.80;46.60;;;;;;7663624;23;20280;-72
2023/02/08 10:36:26;;;;;;;;;;;18.80;47.00;;;;;;7766745;22;19969;-72
2023/02/08 10:39:29;;;;;;;;;;;18.90;47.00;;;;;;7789559;22;19990;-72
2023/02/08 10:42:30;;;;;;;;;;;18.90;47.30;;;;;;7789438;22;19904;-70
2023/02/08 10:45:35;;;;;;;;;;;18.90;46.80;;;;;;7788934;22;19919;-72
2023/02/08 10:48:54;;;;;;;;;;;18.90;46.90;;;;;;7789705;22;19909;-72
2023/02/08 10:51:55;;;;;;;;;;;18.90;46.90;;;;;;7790152;22;19907;-72
2023/02/08 10:54:58;;;;;;;;;;;18.90;47.00;;;;;;7789348;22;20420;-72
2023/02/08 10:57:59;;;;;;;;;;;18.90;46.80;;;;;;7789710;22;19907;-72
2023/02/08 11:01:00;;;;;;;;;;;18.90;46.70;;;;;;7789440;22;20083;-72
2023/02/08 11:04:11;;;;;;;;;;;18.90;46.70;;;;;;7790135;22;20323;-72
2023/02/08 11:07:18;;;;;;;;;;;18.90;46.90;;;;;;7782156;22;19985;-72
2023/02/08 11:10:18;;;;;;;;;;;18.90;46.70;;;;;;7790479;22;20254;-73
2023/02/08 11:13:19;;;;;;;;;;;18.90;46.70;;;;;;7789580;22;19904;-72
2023/02/08 11:16:21;;;;;;;;;;;18.90;46.80;;;;;;7780409;22;19997;-72
2023/02/08 11:19:28;;;;;;;;;;;18.90;46.90;;;;;;7789358;22;19961;-72
2023/02/08 11:22:30;;;;;;;;;;;18.90;46.90;;;;;;7789689;22;20323;-72
2023/02/08 11:25:32;;;;;;;;;;;18.90;46.90;;;;;;7789924;22;19907;-72
2023/02/08 11:28:33;;;;;;;;;;;18.90;47.00;;;;;;7789737;22;20234;-72
2023/02/08 11:31:35;;;;;;;;;;;18.90;47.00;;;;;;7789927;22;19903;-70
2023/02/08 11:34:39;;;;;;;;;;;18.90;47.00;;;;;;7789924;22;20108;-72
2023/02/08 11:37:45;;;;;;;;;;;18.90;47.10;;;;;;7789261;22;19911;-72
2023/02/08 11:40:45;;;;;;;;;;;18.90;47.00;;;;;;7789640;22;19964;-72
2023/02/08 11:44:05;;;;;;;;;;;18.90;47.10;;;;;;7789770;22;20301;-71
2023/02/08 11:47:07;;;;;;;;;;;18.90;47.20;;;;;;7789663;22;19974;-72
2023/02/08 11:50:20;;;;;;;;;;;18.90;47.30;;;;;;7789583;22;19934;-71
2023/02/08 11:53:26;;;;;;;;;;;18.90;47.20;;;;;;7789552;22;19903;-72
2023/02/08 11:56:28;;;;;;;;;;;18.80;47.10;;;;;;7783122;22;19911;-72
2023/02/08 11:59:29;;;;;;;;;;;18.90;47.30;;;;;;7789397;22;19910;-72
2023/02/08 12:02:34;;;;;;;;;;;18.90;47.40;;;;;;7789245;22;19949;-72
2023/02/08 12:05:35;;;;;;;;;;;18.90;47.40;;;;;;7789571;22;20048;-71
2023/02/08 12:08:38;;;;;;;;;;;18.90;47.40;;;;;;7789343;22;19915;-72
2023/02/08 12:11:39;;;;;;;;;;;18.90;47.40;;;;;;7789264;22;19910;-72
2023/02/08 12:14:39;;;;;;;;;;;18.90;47.50;;;;;;7789363;22;19903;-72
2023/02/08 12:17:53;;;;;;;;;;;18.90;47.50;;;;;;7789131;22;19937;-72
2023/02/08 12:20:59;;;;;;;;;;;18.90;47.50;;;;;;7789655;22;20269;-71
2023/02/08 12:24:11;;;;;;;;;;;18.90;47.50;;;;;;7789038;22;19907;-70
2023/02/08 12:27:12;;;;;;;;;;;18.90;47.50;;;;;;7789107;22;19978;-72
2023/02/08 12:30:21;;;;;;;;;;;18.90;48.30;;;;;;7788899;22;19907;-72
2023/02/08 12:33:43;;;;;;;;;;;18.90;47.60;;;;;;7789460;22;20302;-72
2023/02/08 12:36:47;;;;;;;;;;;18.90;47.60;;;;;;7788537;22;20391;-72
2023/02/08 12:43:16;;;;;;;;;;;18.90;47.60;;;;;;7788317;22;19935;-72
2023/02/08 12:46:21;;;;;;;;;;;18.90;47.70;;;;;;7789015;22;20376;-71
2023/02/08 12:49:28;;;;;;;;;;;18.90;47.70;;;;;;7779385;22;19908;-72
2023/02/08 12:52:35;;;;;;;;;;;18.90;47.70;;;;;;7760757;22;19904;-72
2023/02/08 12:55:37;;;;;;;;;;;18.90;47.80;;;;;;7786175;22;19973;-73
2023/02/08 12:58:44;;;;;;;;;;;18.90;47.80;;;;;;7785854;22;20334;-72
2023/02/08 13:01:49;;;;;;;;;;;18.90;47.80;;;;;;7787530;22;19956;-72
2023/02/08 13:04:52;;;;;;;;;;;18.90;47.90;;;;;;7788066;22;19907;-72
2023/02/08 13:08:00;;;;;;;;;;;18.90;47.90;;;;;;7787221;22;19957;-72
2023/02/08 13:11:09;;;;;;;;;;;18.90;48.00;;;;;;7761001;22;19903;-72
2023/02/08 13:14:22;;;;;;;;;;;18.90;48.00;;;;;;7788080;22;19907;-73
2023/02/08 13:17:25;;;;;;;;;;;18.90;48.00;;;;;;7787704;22;19922;-73
2023/02/08 13:20:31;;;;;;;;;;;18.80;47.90;;;;;;7787331;22;19904;-73
2023/02/08 13:23:42;;;;;;;;;;;18.90;48.00;;;;;;7788045;22;20319;-71
2023/02/08 13:26:42;;;;;;;;;;;18.90;48.00;;;;;;7787697;22;20353;-73
2023/02/08 13:29:45;;;;;;;;;;;18.90;48.00;;;;;;7787749;22;19907;-72
2023/02/08 13:32:49;;;;;;;;;;;18.90;48.00;;;;;;7787000;22;19935;-73
2023/02/08 13:35:51;;;;;;;;;;;18.90;48.90;;;;;;7786349;22;19915;-73
2023/02/08 13:38:52;;;;;;;;;;;18.90;48.20;;;;;;7786956;22;19910;-73
2023/02/08 13:41:54;;;;;;;;;;;18.90;48.20;;;;;;7788037;22;19903;-73
2023/02/08 13:44:55;;;;;;;;;;;18.90;48.20;;;;;;7786958;22;19922;-72
2023/02/08 13:48:01;;;;;;;;;;;18.90;48.20;;;;;;7780067;22;20014;-73
2023/02/08 13:51:01;;;;;;;;;;;18.90;48.20;;;;;;7785957;22;20012;-73
2023/02/08 13:54:09;;;;;;;;;;;18.90;48.30;;;;;;7786234;22;19915;-73
2023/02/08 13:57:29;;;;;;;;;;;18.90;48.30;;;;;;7786246;22;19912;-73
2023/02/08 14:00:33;;;;;;;;;;;18.80;48.20;;;;;;7786699;22;19903;-73
2023/02/08 14:03:34;;;;;;;;;;;18.90;48.30;;;;;;7785451;22;19907;-72
2023/02/08 14:06:36;;;;;;;;;;;18.90;48.30;;;;;;7786503;22;20361;-73
2023/02/08 14:09:51;;;;;;;;;;;18.90;48.30;;;;;;7786565;22;19919;-73
2023/02/08 14:13:00;;;;;;;;;;;18.90;48.40;;;;;;7778701;22;19903;-73
2023/02/08 14:16:19;;;;;;;;;;;18.90;48.40;;;;;;7787238;22;19912;-73
2023/02/08 14:19:21;;;;;;;;;;;18.90;48.40;;;;;;7786105;22;19910;-72
2023/02/08 14:22:22;;;;;;;;;;;18.90;48.50;;;;;;7785784;22;20346;-73
2023/02/08 14:25:43;;;;;;;;;;;18.90;48.50;;;;;;7785875;22;19907;-73
2023/02/08 14:28:45;;;;;;;;;;;18.90;48.50;;;;;;7784829;22;19904;-72
2023/02/08 14:31:45;;;;;;;;;;;18.90;48.60;;;;;;7778318;22;20292;-72
2023/02/08 14:34:46;;;;;;;;;;;18.90;48.60;;;;;;7785883;22;19961;-73
2023/02/08 14:37:47;;;;;;;;;;;18.90;48.60;;;;;;7785276;22;19915;-73
2023/02/08 14:40:48;;;;;;;;;;;18.90;48.60;;;;;;7786757;22;19910;-72
2023/02/08 14:43:48;;;;;;;;;;;18.90;48.70;;;;;;7785667;22;19919;-73
2023/02/08 14:46:49;;;;;;;;;;;18.90;48.70;;;;;;7786011;22;19910;-73
2023/02/08 14:50:08;;;;;;;;;;;18.90;48.70;;;;;;7785828;22;19985;-75
2023/02/08 14:53:11;;;;;;;;;;;18.80;48.60;;;;;;7785906;22;20211;-73
2023/02/08 14:56:32;;;;;;;;;;;18.90;48.70;;;;;;7786081;22;19912;-73
2023/02/08 14:59:33;;;;;;;;;;;18.90;48.80;;;;;;7785871;22;20339;-73
2023/02/08 15:02:38;;;;;;;;;;;18.90;48.80;;;;;;7786479;22;20235;-73
2023/02/08 15:06:07;;;;;;;;;;;18.90;48.80;;;;;;7786285;22;19942;-73
2023/02/08 15:09:25;;;;;;;;;;;18.90;48.80;;;;;;7650791;22;19969;-73
2023/02/08 15:12:31;;;;;;;;;;;18.90;48.80;;;;;;7788071;22;19985;-73
2023/02/08 15:15:33;;;;;;;;;;;18.90;48.80;;;;;;7788198;22;20032;-73
2023/02/08 15:18:34;;;;;;;;;;;18.90;48.80;;;;;;7788376;22;19911;-73
2023/02/08 15:21:39;;;;;;;;;;;18.90;48.90;;;;;;7781326;22;19907;-73
2023/02/08 15:24:48;;;;;;;;;;;18.90;48.90;;;;;;7761337;22;19930;-72
2023/02/08 15:27:49;;;;;;;;;;;18.90;48.90;;;;;;7787344;22;19903;-73
2023/02/08 15:30:55;;;;;;;;;;;18.90;48.90;;;;;;7788920;22;20276;-73
2023/02/08 15:33:57;;;;;;;;;;;18.90;48.90;;;;;;7780589;22;19903;-73
2023/02/08 15:36:57;;;;;;;;;;;18.90;48.90;;;;;;7788100;22;20005;-73
2023/02/08 15:39:59;;;;;;;;;;;18.90;48.90;;;;;;7787429;22;19909;-72
2023/02/08 15:43:03;;;;;;;;;;;18.90;49.00;;;;;;7786762;22;19949;-73
2023/02/08 15:46:06;;;;;;;;;;;18.90;49.00;;;;;;7788702;22;20326;-73
2023/02/08 15:49:09;;;;;;;;;;;18.90;49.00;;;;;;7792537;22;19907;-73
2023/02/08 15:52:17;;;;;;;;;;;18.90;49.00;;;;;;7791778;22;19926;-74
2023/02/08 15:55:17;;;;;;;;;;;18.90;49.00;;;;;;7790294;22;19918;-73
2023/02/08 15:58:27;;;;;;;;;;;18.90;49.00;;;;;;7756927;22;19907;-73
2023/02/08 16:01:28;;;;;;;;;;;18.90;49.70;;;;;;7776386;22;19907;-74
2023/02/08 16:04:28;;;;;;;;;;;18.90;49.10;;;;;;7776138;22;19903;-74
2023/02/08 16:07:29;;;;;;;;;;;18.90;49.00;;;;;;7765184;22;19907;-74
2023/02/08 16:10:35;;;;;;;;;;;18.90;49.00;;;;;;7764967;22;19903;-73
2023/02/08 16:13:37;;;;;;;;;;;18.90;49.10;;;;;;7785031;22;20082;-74
2023/02/08 16:16:42;;;;;;;;;;;18.90;49.10;;;;;;7789042;22;19912;-74
2023/02/08 16:19:49;;;;;;;;;;;18.80;49.00;;;;;;7794384;22;19907;-73
2023/02/08 16:22:54;;;;;;;;;;;18.90;49.10;;;;;;7780968;22;20005;-73
2023/02/08 16:25:56;;;;;;;;;;;18.90;49.10;;;;;;7786744;22;19903;-73
2023/02/08 16:29:00;;;;;;;;;;;18.90;49.10;;;;;;7786568;22;20330;-73
2023/02/08 16:32:05;;;;;;;;;;;18.90;49.10;;;;;;7786845;22;19953;-73
2023/02/08 16:35:13;;;;;;;;;;;18.90;49.10;;;;;;7787216;22;19995;-71
2023/02/08 16:38:20;;;;;;;;;;;18.90;49.10;;;;;;7787354;22;19903;-72
2023/02/08 16:41:40;;;;;;;;;;;18.90;49.10;;;;;;7787714;22;20029;-73
2023/02/08 16:44:55;;;;;;;;;;;18.90;49.10;;;;;;7781261;22;19958;-72
2023/02/08 16:47:57;;;;;;;;;;;18.90;49.20;;;;;;7786718;22;19956;-73
2023/02/08 16:50:58;;;;;;;;;;;18.90;49.20;;;;;;7787094;22;19903;-73
2023/02/08 16:54:06;;;;;;;;;;;18.80;49.10;;;;;;7786708;22;19903;-72
2023/02/08 16:57:08;;;;;;;;;;;18.80;49.10;;;;;;7781940;22;19919;-73
2023/02/08 17:00:13;;;;;;;;;;;18.90;49.20;;;;;;7779971;22;20026;-73
2023/02/08 17:03:13;;;;;;;;;;;18.90;49.20;;;;;;7787126;22;20251;-72
2023/02/08 17:06:20;;;;;;;;;;;18.90;49.20;;;;;;7779792;22;19907;-72
2023/02/08 17:09:21;;;;;;;;;;;18.90;49.20;;;;;;7777259;22;19948;-72
2023/02/08 17:12:22;;;;;;;;;;;18.80;49.10;;;;;;7787201;22;19907;-73
2023/02/08 17:15:23;;;;;;;;;;;18.90;49.20;;;;;;7784658;22;20172;-72
2023/02/08 17:18:24;;;;;;;;;;;18.90;49.20;;;;;;7784525;22;19907;-71
2023/02/08 17:21:25;;;;;;;;;;;18.90;49.20;;;;;;7784476;22;19903;-73
2023/02/08 17:24:26;;;;;;;;;;;18.90;49.20;;;;;;7784440;22;19920;-73
2023/02/08 17:27:27;;;;;;;;;;;18.90;49.10;;;;;;7783424;22;19903;-72
2023/02/08 17:30:34;;;;;;;;;;;18.90;49.10;;;;;;7783753;22;19923;-72
2023/02/08 17:33:38;;;;;;;;;;;18.90;49.10;;;;;;7778766;22;19957;-72
2023/02/08 17:36:39;;;;;;;;;;;18.90;49.10;;;;;;7783686;22;19919;-70
2023/02/08 17:39:39;;;;;;;;;;;18.90;49.10;;;;;;7783745;22;20350;-73
2023/02/08 17:42:40;;;;;;;;;;;18.90;49.10;;;;;;7783870;22;19956;-72
2023/02/08 17:45:41;;;;;;;;;;;18.90;49.10;;;;;;7782826;22;19919;-72
2023/02/08 17:48:42;;;;;;;;;;;18.90;49.10;;;;;;7783236;22;20387;-73
2023/02/08 17:51:42;;;;;;;;;;;18.90;49.10;;;;;;7783667;22;19982;-73
2023/02/08 17:54:43;;;;;;;;;;;18.90;49.00;;;;;;7783578;22;20339;-72